Terminal Aerodrome Forecast
Issued by NWS

Home | Current Version | Previous Version | Text Only | Print | Product List | Glossary On
Versions: 1 2 3 4 5 6 7 8 9 10 11 12
000
FTUS43 KDDC 202337
TAFGCK
TAF
KGCK 202337Z 2100/2124 18014KT P6SM SKC
     FM210800 18012KT P6SM FEW250 WS020/20045KT
     FM211300 21011KT P6SM SKC=

USA.gov is the U.S. government's official web portal to all federal, state and local government web resources and services.